Terminal Aerodrome Forecast
Issued by NWS

Current Version | Previous Version | Text Only | Print | Product List | Glossary On
Versions: 1 2 3 4 5 6 7 8 9 10 11 12 13 14 15 16 17 18 19 20 21 22 23 24 25 26 27 28 29 30 31 32 33
990
FTUS46 KMTR 230520
TAFSFO
TAF
KSFO 230520Z 2306/2412 27008KT P6SM SKC
     FM231200 28005KT P6SM FEW015
     FM231500 VRB03KT P6SM FEW015
     FM232200 29013KT P6SM SKC
     FM240100 29016KT P6SM SKC
     FM240600 27009KT P6SM SKC=

USA.gov is the U.S. government's official web portal to all federal, state and local government web resources and services.